• NOTAM LFCU

     Durée permanente depuis 27/09/21 11:49Z
    E) OBST: MAT DE MESURE A SAINT-FREJOUX PSN : 453406.514N 0022352.035E RDL 330/2.26NM LFCU ARP HAUTEUR : 313FT ALT AU SOMMET : 2918FT BALISAGE : JOUR ET NUIT

    NOTAM LFDE

    Aucun NOTAM











  • PHOTOS SATELLITE

CARTE TEMSI

CARTE WINTEM

  • Vent au sol

  • Vent à 5000ft

  • ANIMATION RADAR

  • METAR/TAF LFLC (CLERMONT FERRAND-AUVERGNE)

    LFLC 062100Z AUTO 32003KT 270V040 9999 BKN034/// BKN040/// OVC047/// ///TCU 04/02 Q1014 TEMPO OVC020

    TAF LFLC 061700Z 0618/0718 20006KT 9999 BKN040 TEMPO 0618/0704 28006KT -RA OVC020 BECMG 0706/0708 SCT030 TEMPO 0714/0718 18015G25KT -RA OVC050

    METAR/TAF LFBL (LIMOGES / Bellegarde)

    LFBL 062100Z AUTO 29009KT 9999 OVC006 07/06 Q1016 TEMPO 4000 -RADZ OVC002 BECMG 22010KT

    TAF LFBL 061700Z 0618/0718 22010KT 9999 OVC005 PROB40 TEMPO 0618/0623 4000 -RADZ OVC002 BECMG 0623/0701 VRB02KT 0500 FG VV/// PROB40 TEMPO 0700/0708 0300 BECMG 0708/0710 4000 BR OVC003 BECMG 0710/0712 16012KT 9999 NSW SCT010 BECMG 0713/0715 17015G25KT 4000 -RA OVC008 TEMPO 0715/0718 2000 RA OVC002

    METAR/TAF LFSL

    LFSL 062100Z AUTO 27004KT 220V300 9999 BKN008 OVC014 07/06 Q1017 TEMPO 2000 RA OVC003

    TAF LFSL 061700Z 0618/0703 18004KT 4000 -RADZ BKN017 PROB40 TEMPO 0618/0624 2000 RA OVC003 BECMG 0700/0702 2000 BR OVC003 PROB40 TEMPO 0700/0703 0500 FG VV///

    METAR/TAF LFLW (AURILLAC)

    Aucun METAR